Altoona, Wisconsin
Current Conditions -  °F | °C
As of 7:56 AM on Monday 20 Oct 2014 (Local Time) from KEAU Reporting Station
Clear Clear  
Wind Chill: 39°   Ceiling: Unl
Heat Index: 43°   Visibility: 10mi
Dew Point: 39°   Wind: 6mph
Humidity: 86%   Direction: 290°WNW
Pressure: 29.92"   Gusts: NA
Location:  44.81°N, 91.43°W
Report Text: KEAU 201256Z 29005KT 10SM CLR 06/04 A2992 RMK AO2 SLP137 T00610039
Loading
Personal Weather Stations






























Interactive Weather Map New forecast layout! Learn more

10-Day Weather Forecast

Advertisements
Track Severe Weather on mobile